Time;durP1;ratioP1;P1;durP2;ratioP2;P2;SDS_P1;SDS_P2;PMS_P1;PMS_P2;Temp;Humidity;BMP_temperature;BMP_pressure;BME280_temperature;BME280_humidity;BME280_pressure;Samples;Min_cycle;Max_cycle;Signal;HPM_P1;HPM_P2
2021/07/17 00:02:19;;;;;;;47.10;15.38;;;19.00;99.90;;;;;;5050421;28;20147;-56
2021/07/17 00:04:44;;;;;;;49.25;14.80;;;19.00;99.90;;;;;;5059232;28;20115;-57
2021/07/17 00:07:11;;;;;;;41.75;14.30;;;19.00;99.90;;;;;;5058449;28;20493;-57
2021/07/17 00:09:37;;;;;;;39.85;14.35;;;19.00;99.90;;;;;;5059243;28;20471;-55
2021/07/17 00:12:04;;;;;;;41.70;14.10;;;18.90;99.90;;;;;;5059518;28;20029;-55
2021/07/17 00:14:29;;;;;;;35.35;14.27;;;18.90;99.90;;;;;;5059301;28;20052;-55
2021/07/17 00:16:55;;;;;;;40.17;13.85;;;18.80;99.90;;;;;;5056467;28;20490;-55
2021/07/17 00:19:20;;;;;;;33.58;13.73;;;18.80;99.90;;;;;;5056723;28;20032;-55
2021/07/17 00:21:46;;;;;;;44.00;15.32;;;18.80;99.90;;;;;;5063123;28;20032;-55
2021/07/17 00:24:11;;;;;;;42.58;16.45;;;18.80;99.90;;;;;;5056343;28;20116;-55
2021/07/17 00:26:37;;;;;;;43.08;15.45;;;18.70;99.90;;;;;;5056279;28;20044;-55
2021/07/17 00:29:02;;;;;;;45.22;16.73;;;18.70;99.90;;;;;;5061114;28;20025;-54
2021/07/17 00:31:29;;;;;;;34.78;14.90;;;18.70;99.90;;;;;;5056322;28;20017;-54
2021/07/17 00:33:54;;;;;;;48.17;15.73;;;18.70;99.90;;;;;;5062253;28;20538;-54
2021/07/17 00:36:20;;;;;;;37.30;15.50;;;18.70;99.90;;;;;;5056034;28;20124;-55
2021/07/17 00:38:45;;;;;;;47.42;15.95;;;18.70;99.90;;;;;;5063146;28;20051;-54
2021/07/17 00:41:11;;;;;;;41.65;15.93;;;18.60;99.90;;;;;;5056838;28;20048;-55
2021/07/17 00:43:36;;;;;;;41.80;16.90;;;18.60;99.90;;;;;;5050230;28;20086;-55
2021/07/17 00:46:02;;;;;;;40.20;14.95;;;18.50;99.90;;;;;;5062561;28;20568;-54
2021/07/17 00:48:28;;;;;;;42.42;15.75;;;18.50;99.90;;;;;;5046198;28;20024;-55
2021/07/17 00:50:53;;;;;;;41.58;16.48;;;18.50;99.90;;;;;;5063520;28;20505;-54
2021/07/17 00:53:19;;;;;;;47.83;16.02;;;18.40;99.90;;;;;;5059405;28;20146;-55
2021/07/17 00:55:49;;;;;;;41.00;16.30;;;18.40;99.90;;;;;;5063020;28;20040;-55
2021/07/17 00:58:22;;;;;;;42.60;16.53;;;18.40;99.90;;;;;;5056259;28;20100;-55
2021/07/17 01:00:50;;;;;;;47.70;18.02;;;18.40;99.90;;;;;;5056312;28;20028;-54
2021/07/17 01:03:17;;;;;;;46.20;17.50;;;18.30;99.90;;;;;;5061211;28;20252;-55
2021/07/17 01:05:43;;;;;;;51.17;18.60;;;18.20;99.90;;;;;;5051266;28;20029;-54
2021/07/17 01:08:08;;;;;;;48.70;17.92;;;18.20;99.90;;;;;;5063082;28;20043;-54
2021/07/17 01:10:34;;;;;;;49.60;17.60;;;18.20;99.90;;;;;;5056069;28;20088;-55
2021/07/17 01:13:00;;;;;;;46.45;18.35;;;18.20;99.90;;;;;;5063757;28;20024;-55
2021/07/17 01:15:25;;;;;;;53.08;17.98;;;18.10;99.90;;;;;;5054826;28;20075;-55
2021/07/17 01:17:51;;;;;;;42.58;16.08;;;18.10;99.90;;;;;;5052794;28;20032;-54
2021/07/17 01:20:21;;;;;;;47.47;19.08;;;18.10;99.90;;;;;;5061281;28;20111;-55
2021/07/17 01:22:47;;;;;;;56.08;19.17;;;18.10;99.90;;;;;;5063281;28;20017;-54
2021/07/17 01:25:20;;;;;;;44.10;19.20;;;18.10;99.90;;;;;;5061862;28;20028;-55
2021/07/17 01:27:46;;;;;;;45.50;19.25;;;18.10;99.90;;;;;;5060288;28;20493;-55
2021/07/17 01:30:15;;;;;;;46.88;18.85;;;18.10;99.90;;;;;;5062471;28;20044;-54
2021/07/17 01:32:42;;;;;;;45.78;17.50;;;18.10;99.90;;;;;;5062899;28;20276;-55
2021/07/17 01:35:08;;;;;;;59.20;21.00;;;18.10;99.90;;;;;;5058201;28;20021;-54
2021/07/17 01:37:34;;;;;;;51.13;18.98;;;18.20;99.90;;;;;;5063159;28;20393;-55
2021/07/17 01:40:03;;;;;;;46.97;19.35;;;18.20;99.90;;;;;;5062216;28;20095;-55
2021/07/17 01:42:29;;;;;;;57.38;20.67;;;18.20;99.90;;;;;;5061792;28;20035;-55
2021/07/17 01:44:55;;;;;;;46.83;19.73;;;18.20;99.90;;;;;;5059854;28;20025;-55
2021/07/17 01:47:21;;;;;;;52.38;20.95;;;18.10;99.90;;;;;;5060469;28;20085;-54
2021/07/17 01:49:46;;;;;;;46.40;20.35;;;18.10;99.90;;;;;;5053130;28;20028;-55
2021/07/17 01:52:12;;;;;;;60.03;22.60;;;18.10;99.90;;;;;;5066363;28;20024;-55
2021/07/17 01:54:39;;;;;;;56.60;20.80;;;18.10;99.90;;;;;;5062006;28;20070;-55
2021/07/17 01:57:06;;;;;;;49.55;22.20;;;18.10;99.90;;;;;;5062261;28;20021;-54
2021/07/17 01:59:39;;;;;;;45.10;21.42;;;18.00;99.90;;;;;;5062568;28;20032;-55
2021/07/17 02:02:06;;;;;;;55.08;23.00;;;18.00;99.90;;;;;;5060015;28;20573;-54
2021/07/17 02:04:32;;;;;;;45.05;21.60;;;18.00;99.90;;;;;;5060100;28;20497;-54
2021/07/17 02:06:57;;;;;;;45.75;20.02;;;18.00;99.90;;;;;;5060857;28;20021;-53
2021/07/17 02:09:22;;;;;;;59.67;22.80;;;18.00;99.90;;;;;;5062295;28;20082;-54
2021/07/17 02:11:48;;;;;;;61.88;24.35;;;18.00;99.90;;;;;;5062148;28;20028;-54
2021/07/17 02:14:13;;;;;;;44.70;22.55;;;18.00;99.90;;;;;;5061552;28;20098;-54
2021/07/17 02:16:40;;;;;;;53.90;22.30;;;18.00;99.90;;;;;;5061163;28;20027;-53
2021/07/17 02:19:16;;;;;;;62.13;23.83;;;18.00;99.90;;;;;;5060206;28;20035;-53
2021/07/17 02:21:42;;;;;;;55.35;25.23;;;18.00;99.90;;;;;;5065438;28;20122;-53
2021/07/17 02:24:07;;;;;;;63.17;25.40;;;18.00;99.90;;;;;;5059538;28;20032;-53
2021/07/17 02:26:33;;;;;;;61.60;25.27;;;18.00;99.90;;;;;;5058586;28;20302;-54
2021/07/17 02:28:58;;;;;;;54.53;24.98;;;18.00;99.90;;;;;;5064545;28;20028;-54
2021/07/17 02:31:24;;;;;;;58.20;25.38;;;18.00;99.90;;;;;;5038248;28;20119;-55
2021/07/17 02:33:49;;;;;;;53.08;25.42;;;18.00;99.90;;;;;;5033105;28;20075;-55
2021/07/17 02:36:16;;;;;;;57.75;26.88;;;18.00;99.90;;;;;;5033173;28;20600;-55
2021/07/17 02:38:42;;;;;;;61.25;26.17;;;18.00;99.90;;;;;;5031969;28;20479;-55
2021/07/17 02:41:07;;;;;;;51.28;26.08;;;18.00;99.90;;;;;;5032984;28;20105;-55
2021/07/17 02:43:33;;;;;;;68.07;26.88;;;17.90;99.90;;;;;;5030600;28;20036;-55
2021/07/17 02:45:59;;;;;;;72.13;27.23;;;18.00;99.90;;;;;;5031291;28;20104;-55
2021/07/17 02:48:25;;;;;;;60.83;26.52;;;18.00;99.90;;;;;;5036060;28;20223;-55
2021/07/17 02:50:50;;;;;;;59.35;26.42;;;18.00;99.90;;;;;;5045440;28;20053;-55
2021/07/17 02:53:16;;;;;;;51.33;24.20;;;18.00;99.90;;;;;;5056648;28;20055;-55
2021/07/17 02:55:41;;;;;;;55.05;23.67;;;18.00;99.90;;;;;;5048405;28;20103;-55
2021/07/17 02:58:06;;;;;;;53.42;24.85;;;18.00;99.90;;;;;;5058871;28;20124;-55
2021/07/17 03:00:35;;;;;;;49.22;25.85;;;18.10;99.90;;;;;;5047019;28;20029;-55
2021/07/17 03:03:02;;;;;;;65.85;27.30;;;18.00;99.90;;;;;;5044358;28;20025;-55
2021/07/17 03:05:27;;;;;;;59.05;25.25;;;18.00;99.90;;;;;;5050317;28;20068;-55
2021/07/17 03:07:53;;;;;;;54.15;24.58;;;18.00;99.90;;;;;;5045410;28;20538;-55
2021/07/17 03:10:18;;;;;;;63.08;26.73;;;18.00;99.90;;;;;;5056215;28;20078;-55
2021/07/17 03:12:44;;;;;;;61.08;25.08;;;18.00;99.90;;;;;;5046795;28;20386;-55
2021/07/17 03:15:10;;;;;;;48.88;25.45;;;18.00;99.90;;;;;;5058310;28;20068;-55
2021/07/17 03:17:35;;;;;;;63.33;27.45;;;18.10;99.90;;;;;;5050241;28;20230;-55
2021/07/17 03:20:01;;;;;;;55.75;24.83;;;18.10;99.90;;;;;;5060355;28;20028;-55
2021/07/17 03:22:26;;;;;;;62.45;27.48;;;18.10;99.90;;;;;;5064082;28;20283;-55
2021/07/17 03:24:52;;;;;;;58.45;26.70;;;18.10;99.90;;;;;;5056860;28;20078;-56
2021/07/17 03:27:18;;;;;;;58.30;27.33;;;18.00;99.90;;;;;;5059379;28;20264;-55
2021/07/17 03:29:43;;;;;;;53.30;28.35;;;17.90;99.90;;;;;;5059628;28;20021;-54
2021/07/17 03:32:10;;;;;;;50.70;23.45;;;18.00;99.90;;;;;;5059675;28;20044;-55
2021/07/17 03:34:36;;;;;;;60.20;26.75;;;17.90;99.90;;;;;;5060662;28;20017;-54
2021/07/17 03:37:01;;;;;;;55.15;26.83;;;17.90;99.90;;;;;;5058539;28;20036;-55
2021/07/17 03:39:27;;;;;;;59.40;25.90;;;18.00;99.90;;;;;;5063479;28;20025;-54
2021/07/17 03:41:52;;;;;;;63.10;25.65;;;17.90;99.90;;;;;;5057012;28;20017;-54
2021/07/17 03:44:18;;;;;;;62.45;27.52;;;17.90;99.90;;;;;;5059793;28;20514;-54
2021/07/17 03:46:44;;;;;;;62.33;27.00;;;18.00;99.90;;;;;;5059109;28;20024;-54
2021/07/17 03:49:09;;;;;;;53.08;26.10;;;18.00;99.90;;;;;;5049629;28;20471;-54
2021/07/17 03:51:35;;;;;;;69.53;26.35;;;18.00;99.90;;;;;;5065695;28;20520;-54
2021/07/17 03:54:00;;;;;;;58.15;25.75;;;18.00;99.90;;;;;;5057737;28;20249;-54
2021/07/17 03:56:26;;;;;;;67.05;26.40;;;18.00;99.90;;;;;;5063418;28;20374;-54
2021/07/17 03:58:51;;;;;;;67.35;27.42;;;18.00;99.90;;;;;;5055550;28;20025;-55
2021/07/17 04:01:17;;;;;;;60.95;25.83;;;18.00;99.90;;;;;;5052594;28;20031;-55
2021/07/17 04:03:45;;;;;;;54.92;25.02;;;17.90;99.90;;;;;;5058632;28;20037;-55
2021/07/17 04:06:11;;;;;;;67.78;27.23;;;18.00;99.90;;;;;;5059457;28;20025;-54
2021/07/17 04:08:36;;;;;;;65.57;26.08;;;18.00;99.90;;;;;;5060724;28;20032;-54
2021/07/17 04:11:02;;;;;;;64.68;26.58;;;17.90;99.90;;;;;;5056847;28;20532;-54
2021/07/17 04:13:27;;;;;;;56.47;26.27;;;18.00;99.90;;;;;;5062230;28;20033;-54
2021/07/17 04:15:54;;;;;;;59.85;26.80;;;18.00;99.90;;;;;;5055036;28;20025;-55
2021/07/17 04:18:19;;;;;;;59.25;27.63;;;18.00;99.90;;;;;;5057012;28;20117;-55
2021/07/17 04:20:45;;;;;;;56.60;25.83;;;17.90;99.90;;;;;;5061617;28;20130;-55
2021/07/17 04:23:10;;;;;;;53.33;25.27;;;18.00;99.90;;;;;;5058925;28;20402;-56
2021/07/17 04:25:36;;;;;;;66.40;26.48;;;18.00;99.90;;;;;;5059530;28;20031;-56
2021/07/17 04:28:01;;;;;;;63.28;28.92;;;18.00;99.90;;;;;;5056307;28;20080;-55
2021/07/17 04:30:27;;;;;;;58.70;27.15;;;18.00;99.90;;;;;;5053462;28;20078;-55
2021/07/17 04:32:52;;;;;;;58.60;26.88;;;18.00;99.90;;;;;;5035358;28;20022;-56
2021/07/17 04:35:18;;;;;;;63.20;27.42;;;18.00;99.90;;;;;;5059375;28;20036;-55
2021/07/17 04:37:45;;;;;;;77.80;29.92;;;18.10;99.90;;;;;;5042442;28;20025;-54
2021/07/17 04:40:11;;;;;;;58.67;26.98;;;18.00;99.90;;;;;;5049808;28;20140;-55
2021/07/17 04:42:37;;;;;;;68.70;26.95;;;18.10;99.90;;;;;;5047911;28;20489;-55
2021/07/17 04:45:03;;;;;;;71.72;30.23;;;18.10;99.90;;;;;;5034310;28;20112;-55
2021/07/17 04:47:29;;;;;;;76.07;30.02;;;18.10;99.90;;;;;;5052541;28;20027;-55
2021/07/17 04:49:54;;;;;;;75.40;28.35;;;18.10;99.90;;;;;;5034951;28;20260;-55
2021/07/17 04:52:19;;;;;;;79.82;28.65;;;18.10;99.90;;;;;;5060226;28;20058;-55
2021/07/17 04:54:45;;;;;;;67.70;28.67;;;18.10;99.90;;;;;;5041032;28;20423;-55
2021/07/17 04:57:10;;;;;;;69.75;28.73;;;18.10;99.90;;;;;;5054227;28;20071;-55
2021/07/17 04:59:36;;;;;;;64.32;26.88;;;18.10;99.90;;;;;;5053256;28;20036;-56
2021/07/17 05:02:02;;;;;;;56.40;28.42;;;18.10;99.90;;;;;;5038700;28;20479;-54
2021/07/17 05:04:27;;;;;;;68.15;27.58;;;18.10;99.90;;;;;;5058427;28;20039;-54
2021/07/17 05:06:53;;;;;;;67.28;30.50;;;18.10;99.90;;;;;;5039434;28;20037;-55
2021/07/17 05:09:18;;;;;;;58.60;27.38;;;18.20;99.90;;;;;;5063989;28;20040;-55
2021/07/17 05:11:44;;;;;;;66.50;27.85;;;18.20;99.90;;;;;;5046272;28;20244;-55
2021/07/17 05:14:09;;;;;;;64.05;28.50;;;18.30;99.90;;;;;;5052332;28;20505;-55
2021/07/17 05:16:35;;;;;;;68.15;28.63;;;18.30;99.90;;;;;;5056148;28;20020;-55
2021/07/17 05:19:00;;;;;;;66.88;27.92;;;18.40;99.90;;;;;;5060432;28;20132;-55
2021/07/17 05:21:26;;;;;;;62.63;25.92;;;18.30;99.90;;;;;;5064786;28;20025;-56
2021/07/17 05:23:51;;;;;;;65.78;27.65;;;18.40;99.90;;;;;;5067767;28;20044;-55
2021/07/17 05:26:17;;;;;;;62.40;26.25;;;18.40;99.90;;;;;;5059755;28;20025;-55
2021/07/17 05:28:42;;;;;;;59.92;25.25;;;18.40;99.90;;;;;;5064369;28;20070;-55
2021/07/17 05:31:08;;;;;;;61.35;26.23;;;18.50;99.90;;;;;;5060645;28;20055;-55
2021/07/17 05:33:33;;;;;;;67.20;28.83;;;18.60;99.90;;;;;;5063269;28;20037;-55
2021/07/17 05:35:59;;;;;;;64.80;25.30;;;18.60;99.90;;;;;;5044044;28;20070;-55
2021/07/17 05:38:24;;;;;;;66.95;25.48;;;18.60;99.90;;;;;;5058696;28;20029;-56
2021/07/17 05:40:50;;;;;;;53.92;25.50;;;18.70;99.90;;;;;;5049082;28;20029;-56
2021/07/17 05:43:15;;;;;;;46.42;23.80;;;18.80;99.90;;;;;;5037903;28;20686;-56
2021/07/17 05:45:41;;;;;;;55.95;23.77;;;18.80;99.90;;;;;;5050737;28;20597;-56
2021/07/17 05:48:07;;;;;;;54.65;24.88;;;18.90;99.90;;;;;;5043499;28;20017;-56
2021/07/17 05:50:33;;;;;;;59.05;23.95;;;19.00;99.90;;;;;;5054117;28;20680;-56
2021/07/17 05:53:04;;;;;;;52.92;22.73;;;19.10;99.90;;;;;;5054474;28;20034;-56
2021/07/17 05:55:30;;;;;;;52.38;23.02;;;19.10;99.90;;;;;;5037394;28;20024;-55
2021/07/17 05:57:55;;;;;;;52.83;23.55;;;19.20;99.90;;;;;;5033031;28;20112;-56
2021/07/17 06:00:21;;;;;;;56.70;24.23;;;19.20;99.90;;;;;;5034979;28;20033;-55
2021/07/17 06:02:47;;;;;;;45.20;22.70;;;19.30;99.90;;;;;;5032665;28;20063;-55
2021/07/17 06:05:12;;;;;;;40.63;20.58;;;19.30;99.90;;;;;;5033764;28;20036;-56
2021/07/17 06:07:38;;;;;;;51.28;21.35;;;19.40;99.90;;;;;;5032158;28;20021;-56
2021/07/17 06:10:04;;;;;;;57.78;23.40;;;19.40;99.90;;;;;;5050223;28;20544;-55
2021/07/17 06:12:30;;;;;;;44.75;21.13;;;19.50;99.90;;;;;;5049459;28;20033;-56
2021/07/17 06:14:55;;;;;;;53.83;22.95;;;19.50;99.90;;;;;;5058324;28;20021;-55
2021/07/17 06:17:21;;;;;;;47.33;21.70;;;19.40;99.90;;;;;;5052972;28;20502;-55
2021/07/17 06:19:47;;;;;;;42.97;21.08;;;19.50;99.90;;;;;;5057259;28;20587;-55
2021/07/17 06:22:12;;;;;;;59.45;22.35;;;19.50;99.90;;;;;;5068894;28;20028;-55
2021/07/17 06:24:39;;;;;;;50.88;20.77;;;19.50;99.90;;;;;;5059961;28;20041;-55
2021/07/17 06:27:05;;;;;;;44.85;21.38;;;19.60;99.90;;;;;;5060307;28;20028;-55
2021/07/17 06:29:30;;;;;;;44.83;20.65;;;19.60;99.90;;;;;;5062554;28;20036;-55
2021/07/17 06:31:56;;;;;;;41.70;21.02;;;19.60;99.90;;;;;;5059364;28;20241;-55
2021/07/17 06:34:22;;;;;;;46.83;20.50;;;19.60;99.90;;;;;;5063943;28;20524;-55
2021/07/17 06:36:48;;;;;;;39.47;19.52;;;19.60;99.90;;;;;;5058525;28;20021;-55
2021/07/17 06:39:13;;;;;;;51.28;22.40;;;19.70;99.90;;;;;;5066135;28;20082;-55
2021/07/17 06:41:39;;;;;;;49.05;21.63;;;19.70;99.90;;;;;;5057066;28;20025;-55
2021/07/17 06:44:04;;;;;;;45.15;21.85;;;19.70;99.90;;;;;;5059423;28;20029;-56
2021/07/17 06:46:30;;;;;;;44.15;19.80;;;19.80;99.90;;;;;;5062875;28;20467;-56
2021/07/17 06:48:56;;;;;;;50.80;21.13;;;19.80;99.90;;;;;;5058451;28;20391;-55
2021/07/17 06:51:21;;;;;;;48.40;19.83;;;19.90;99.90;;;;;;5067106;28;20024;-55
2021/07/17 06:53:47;;;;;;;45.80;19.60;;;20.00;99.90;;;;;;5057807;28;20051;-55
2021/07/17 06:56:16;;;;;;;47.78;24.73;;;20.00;99.90;;;;;;5065668;28;20017;-56
2021/07/17 06:58:42;;;;;;;56.33;21.10;;;20.10;99.90;;;;;;5058066;28;20025;-55
2021/07/17 07:01:07;;;;;;;47.65;21.10;;;20.20;99.90;;;;;;5060330;28;20029;-56
2021/07/17 07:03:33;;;;;;;40.85;18.75;;;20.30;99.90;;;;;;5061129;28;20033;-56
2021/07/17 07:05:58;;;;;;;37.65;18.13;;;20.40;99.90;;;;;;5058664;28;20150;-56
2021/07/17 07:08:25;;;;;;;34.08;18.42;;;20.40;99.90;;;;;;5062663;28;20083;-56
2021/07/17 07:10:50;;;;;;;40.20;17.27;;;20.60;99.90;;;;;;5057881;28;20024;-56
2021/07/17 07:13:17;;;;;;;38.08;18.40;;;20.80;99.90;;;;;;5065105;28;20025;-56
2021/07/17 07:15:43;;;;;;;35.90;16.27;;;20.90;99.90;;;;;;5057180;28;20021;-56
2021/07/17 07:18:08;;;;;;;47.58;18.83;;;21.10;99.90;;;;;;5056943;28;20386;-56
2021/07/17 07:20:34;;;;;;;34.85;16.45;;;21.10;99.90;;;;;;5058464;28;20036;-56
2021/07/17 07:23:00;;;;;;;37.17;17.02;;;21.30;99.90;;;;;;5056844;28;20017;-55
2021/07/17 07:25:27;;;;;;;32.58;15.88;;;21.40;99.90;;;;;;5053677;28;20120;-46
2021/07/17 07:27:52;;;;;;;34.35;15.82;;;21.50;99.90;;;;;;5044969;28;20075;-44
2021/07/17 07:30:18;;;;;;;40.42;16.55;;;21.70;99.90;;;;;;5055421;28;20028;-45
2021/07/17 07:32:44;;;;;;;31.15;15.95;;;21.70;99.90;;;;;;5048426;28;20409;-46
2021/07/17 07:35:09;;;;;;;33.30;14.93;;;21.80;99.90;;;;;;5053082;28;20097;-45
2021/07/17 07:37:35;;;;;;;25.70;14.82;;;21.80;99.90;;;;;;5052531;28;20028;-45
2021/07/17 07:40:02;;;;;;;30.80;13.93;;;22.00;99.90;;;;;;5053586;28;20025;-44
2021/07/17 07:42:28;;;;;;;33.58;15.73;;;22.10;99.90;;;;;;5054303;28;20024;-45
2021/07/17 07:44:54;;;;;;;38.88;15.88;;;22.20;99.90;;;;;;5044224;28;20314;-45
2021/07/17 07:47:19;;;;;;;27.65;15.05;;;22.20;99.90;;;;;;5055029;28;20028;-44
2021/07/17 07:49:46;;;;;;;28.23;14.93;;;22.20;99.90;;;;;;5048868;28;20031;-43
2021/07/17 07:52:12;;;;;;;30.60;14.23;;;22.20;99.90;;;;;;5057608;28;20255;-46
2021/07/17 07:54:38;;;;;;;35.92;14.73;;;22.30;99.90;;;;;;5051129;28;20103;-46
2021/07/17 07:57:04;;;;;;;28.17;14.45;;;22.60;99.90;;;;;;5053005;28;20021;-45
2021/07/17 07:59:30;;;;;;;31.13;15.05;;;22.50;99.90;;;;;;5054257;28;20390;-48
2021/07/17 08:01:55;;;;;;;26.33;13.30;;;22.50;99.90;;;;;;5053054;28;20129;-47
2021/07/17 08:04:21;;;;;;;30.13;14.82;;;22.60;99.90;;;;;;5053678;28;20036;-46
2021/07/17 08:06:46;;;;;;;29.65;14.70;;;22.60;99.90;;;;;;5048742;28;20445;-47
2021/07/17 08:09:13;;;;;;;32.25;13.73;;;22.50;99.90;;;;;;5053993;28;20024;-45
2021/07/17 08:11:38;;;;;;;35.47;14.93;;;22.60;99.90;;;;;;5052958;28;20543;-47
2021/07/17 08:14:04;;;;;;;27.15;13.85;;;22.60;99.90;;;;;;5052322;28;20029;-44
2021/07/17 08:16:30;;;;;;;35.30;14.45;;;22.60;99.90;;;;;;5053845;28;20028;-44
2021/07/17 08:18:55;;;;;;;31.80;14.05;;;22.70;99.90;;;;;;5057184;28;20032;-44
2021/07/17 08:21:21;;;;;;;24.45;13.05;;;22.90;99.90;;;;;;5061204;28;20651;-45
2021/07/17 08:23:47;;;;;;;28.58;12.95;;;23.20;99.90;;;;;;5064761;28;20028;-48
2021/07/17 08:26:12;;;;;;;25.15;12.10;;;23.80;99.90;;;;;;5040411;28;20035;-46
2021/07/17 08:28:38;;;;;;;23.65;12.13;;;24.20;99.90;;;;;;5030714;28;20033;-47
2021/07/17 08:31:04;;;;;;;23.23;11.85;;;25.10;99.90;;;;;;5037759;28;20608;-48
2021/07/17 08:33:29;;;;;;;23.45;10.85;;;25.50;99.90;;;;;;5030719;28;20036;-45
2021/07/17 08:35:55;;;;;;;18.35;11.38;;;25.80;99.90;;;;;;5029123;28;20091;-44
2021/07/17 08:38:20;;;;;;;17.27;9.77;;;25.90;99.90;;;;;;5027777;28;20033;-46
2021/07/17 08:40:58;;;;;;;21.25;9.93;;;26.10;99.90;;;;;;5027876;28;20022;-46
2021/07/17 08:43:24;;;;;;;21.95;11.50;;;26.50;99.90;;;;;;5029355;28;20028;-46
2021/07/17 08:45:51;;;;;;;21.23;10.02;;;26.70;99.90;;;;;;5030319;28;20013;-45
2021/07/17 08:48:20;;;;;;;17.05;9.98;;;27.30;99.90;;;;;;5030157;28;20550;-47
2021/07/17 08:50:46;;;;;;;22.37;9.97;;;28.00;99.90;;;;;;5029891;28;20040;-48
2021/07/17 08:53:14;;;;;;;19.02;9.45;;;28.90;99.90;;;;;;5028959;28;20279;-47
2021/07/17 08:55:40;;;;;;;20.63;8.68;;;29.60;98.40;;;;;;5029950;28;20415;-47
2021/07/17 08:58:06;;;;;;;18.52;9.10;;;30.10;97.30;;;;;;5046716;28;20028;-44
2021/07/17 09:00:35;;;;;;;17.75;9.00;;;30.60;95.70;;;;;;5042558;28;20034;-45
2021/07/17 09:03:04;;;;;;;14.48;8.10;;;31.00;93.80;;;;;;5054812;28;20032;-45
2021/07/17 09:05:33;;;;;;;14.35;8.20;;;30.80;92.30;;;;;;5045038;28;20025;-46
2021/07/17 09:07:59;;;;;;;11.50;7.35;;;31.40;90.90;;;;;;5056175;28;20059;-48
2021/07/17 09:10:31;;;;;;;14.52;7.72;;;31.80;91.20;;;;;;5050431;28;20017;-45
2021/07/17 09:13:17;;;;;;;13.57;7.95;;;32.60;87.30;;;;;;5057617;28;20027;-48
2021/07/17 09:15:58;;;;;;;13.88;8.05;;;32.30;85.10;;;;;;5046173;28;20031;-45
2021/07/17 09:18:31;;;;;;;17.92;8.57;;;32.10;84.60;;;;;;5050790;28;20498;-46
2021/07/17 09:21:23;;;;;;;16.42;8.52;;;31.60;84.40;;;;;;5059048;28;20035;-46
2021/07/17 09:23:56;;;;;;;14.13;8.38;;;30.60;90.40;;;;;;5061877;28;20059;-46
2021/07/17 09:26:30;;;;;;;16.30;8.82;;;31.20;90.20;;;;;;5055303;28;20033;-46
2021/07/17 09:29:04;;;;;;;16.17;8.77;;;31.70;87.50;;;;;;5063618;28;20111;-47
2021/07/17 09:31:32;;;;;;;14.07;8.90;;;32.10;83.50;;;;;;5057569;28;20018;-47
2021/07/17 09:34:09;;;;;;;16.17;8.77;;;32.90;82.60;;;;;;5063853;28;20694;-49
2021/07/17 09:37:02;;;;;;;11.95;8.00;;;33.90;81.30;;;;;;5055901;28;20021;-48
2021/07/17 09:39:28;;;;;;;9.48;7.43;;;35.00;77.90;;;;;;5044499;28;20017;-50
2021/07/17 09:41:59;;;;;;;10.98;7.30;;;35.30;71.10;;;;;;5034424;28;20044;-49
2021/07/17 09:44:26;;;;;;;10.35;7.57;;;36.00;71.10;;;;;;5034798;28;20018;-47
2021/07/17 09:46:51;;;;;;;10.63;7.88;;;36.20;69.20;;;;;;5036421;28;20052;-49
2021/07/17 09:49:18;;;;;;;13.68;6.97;;;36.20;66.20;;;;;;5042048;28;20044;-48
2021/07/17 09:51:45;;;;;;;11.55;7.35;;;35.80;66.20;;;;;;5037470;28;20021;-48
2021/07/17 09:54:10;;;;;;;9.73;7.57;;;35.00;68.20;;;;;;5056092;28;20018;-50
2021/07/17 09:56:40;;;;;;;12.75;8.13;;;34.30;70.20;;;;;;5056355;28;20025;-50
2021/07/17 09:59:08;;;;;;;13.90;7.85;;;34.00;69.60;;;;;;5052884;28;20061;-48
2021/07/17 10:01:43;;;;;;;14.00;7.93;;;33.80;70.30;;;;;;5047954;28;20032;-48
2021/07/17 10:04:13;;;;;;;11.35;8.25;;;34.50;71.60;;;;;;5054059;28;20033;-49
2021/07/17 10:06:59;;;;;;;12.85;8.02;;;34.80;67.50;;;;;;5050994;28;20028;-48
2021/07/17 10:09:35;;;;;;;9.75;7.93;;;35.30;67.50;;;;;;5045336;28;20024;-49
2021/07/17 10:12:04;;;;;;;9.25;7.47;;;36.00;66.30;;;;;;5052668;28;20045;-48
2021/07/17 10:14:41;;;;;;;11.68;7.72;;;35.60;65.30;;;;;;5057968;28;20024;-48
2021/07/17 10:17:14;;;;;;;11.15;8.50;;;35.20;64.70;;;;;;5053849;28;20482;-47
2021/07/17 10:19:41;;;;;;;8.02;6.93;;;35.00;68.60;;;;;;5060576;28;20036;-49
2021/07/17 10:22:08;;;;;;;8.50;6.97;;;35.30;66.50;;;;;;5067834;28;20107;-48
2021/07/17 10:24:34;;;;;;;10.38;7.85;;;35.70;67.20;;;;;;5059412;28;20032;-48
2021/07/17 10:27:01;;;;;;;11.13;7.38;;;34.90;65.70;;;;;;5061343;28;20025;-48
2021/07/17 10:29:27;;;;;;;10.10;7.80;;;34.30;68.80;;;;;;5068580;28;20044;-49
2021/07/17 10:31:56;;;;;;;10.65;7.57;;;34.10;69.90;;;;;;5063839;28;20471;-47
2021/07/17 10:34:22;;;;;;;12.73;7.57;;;33.20;70.50;;;;;;5065879;28;20033;-48
2021/07/17 10:37:06;;;;;;;11.05;8.15;;;32.50;71.40;;;;;;5059880;28;20021;-48
2021/07/17 10:39:38;;;;;;;10.75;7.38;;;31.90;74.00;;;;;;5054416;28;20083;-47
2021/07/17 10:42:17;;;;;;;9.88;7.60;;;31.30;75.30;;;;;;5061393;28;20486;-47
2021/07/17 10:44:56;;;;;;;11.38;6.97;;;31.30;74.00;;;;;;5061203;28;20103;-46
2021/07/17 10:47:23;;;;;;;11.03;7.60;;;30.70;77.80;;;;;;5045063;28;20594;-48
2021/07/17 10:49:51;;;;;;;13.50;7.57;;;30.60;79.20;;;;;;5035729;28;20049;-47
2021/07/17 10:52:39;;;;;;;9.75;7.28;;;30.70;77.00;;;;;;5039610;28;20470;-47
2021/07/17 10:55:34;;;;;;;11.77;7.15;;;30.90;77.70;;;;;;5053781;28;20036;-49
2021/07/17 10:58:22;;;;;;;12.68;6.80;;;31.00;76.20;;;;;;5059384;28;20025;-47
2021/07/17 11:00:49;;;;;;;7.15;6.45;;;31.10;77.50;;;;;;5047249;28;20037;-48
2021/07/17 11:03:30;;;;;;;9.52;7.28;;;31.40;76.90;;;;;;5049531;28;20032;-49
2021/07/17 11:05:56;;;;;;;10.60;6.95;;;31.30;77.90;;;;;;5049271;28;20027;-47
2021/07/17 11:08:28;;;;;;;7.57;6.38;;;31.70;77.20;;;;;;5054032;28;20578;-47
2021/07/17 11:10:53;;;;;;;7.22;6.13;;;32.30;77.60;;;;;;5050224;28;20043;-50
2021/07/17 11:13:31;;;;;;;8.90;6.32;;;32.50;75.40;;;;;;5057364;28;20020;-47
2021/07/17 11:15:56;;;;;;;9.82;6.57;;;32.90;76.60;;;;;;5051366;28;20029;-50
2021/07/17 11:18:25;;;;;;;7.65;5.70;;;32.70;74.10;;;;;;5062635;28;20039;-49
2021/07/17 11:20:58;;;;;;;8.95;6.20;;;32.70;74.30;;;;;;5062142;28;20066;-49
2021/07/17 11:23:31;;;;;;;6.53;5.82;;;32.70;73.80;;;;;;5050958;28;20111;-47
2021/07/17 11:25:59;;;;;;;6.80;6.10;;;33.40;72.00;;;;;;5057746;28;20090;-47
2021/07/17 11:31:47;;;;;;;6.00;5.38;;;33.60;72.70;;;;;;5058232;28;20108;-49
2021/07/17 11:34:14;;;;;;;6.15;5.50;;;33.60;70.60;;;;;;5062602;28;20116;-47
2021/07/17 11:36:44;;;;;;;8.13;4.90;;;33.60;69.50;;;;;;5057082;28;20481;-50
2021/07/17 11:39:12;;;;;;;5.57;4.43;;;33.60;69.90;;;;;;5051940;28;20651;-50
2021/07/17 11:41:38;;;;;;;6.85;4.30;;;33.50;66.90;;;;;;5050137;28;20032;-49
2021/07/17 11:44:04;;;;;;;8.27;4.40;;;33.40;67.10;;;;;;5037856;28;20467;-48
2021/07/17 11:46:30;;;;;;;6.15;4.22;;;33.10;66.90;;;;;;5057209;28;20028;-47
2021/07/17 11:49:03;;;;;;;4.60;3.97;;;32.60;66.70;;;;;;5039354;28;20025;-47
2021/07/17 11:51:29;;;;;;;7.10;3.42;;;32.40;67.00;;;;;;5052960;28;20028;-48
2021/07/17 11:53:59;;;;;;;5.18;4.00;;;32.50;65.30;;;;;;5041872;28;20028;-47
2021/07/17 11:56:24;;;;;;;6.57;3.13;;;33.00;67.10;;;;;;5053520;28;20032;-47
2021/07/17 11:58:50;;;;;;;11.10;3.30;;;33.50;63.90;;;;;;5045220;28;20133;-49
2021/07/17 12:01:17;;;;;;;4.50;3.13;;;33.70;61.40;;;;;;5039620;28;20590;-50
2021/07/17 12:03:54;;;;;;;3.00;2.70;;;33.70;60.30;;;;;;5035361;28;20029;-46
2021/07/17 12:06:27;;;;;;;2.83;2.50;;;34.00;63.10;;;;;;5041046;28;20032;-46
2021/07/17 12:08:53;;;;;;;2.40;2.20;;;33.80;60.80;;;;;;5038870;28;20022;-47
2021/07/17 12:11:19;;;;;;;4.70;2.55;;;33.90;57.60;;;;;;5042711;28;20073;-47
2021/07/17 12:13:45;;;;;;;4.70;2.20;;;34.10;60.90;;;;;;5038523;28;20013;-47
2021/07/17 12:16:23;;;;;;;5.63;2.47;;;33.60;60.00;;;;;;5042724;28;20044;-49
2021/07/17 12:18:56;;;;;;;3.70;2.28;;;33.20;57.60;;;;;;5039201;28;20091;-49
2021/07/17 12:21:22;;;;;;;3.28;2.00;;;32.80;57.40;;;;;;5039267;28;20029;-50
2021/07/17 12:23:58;;;;;;;4.68;2.00;;;32.60;58.00;;;;;;5038393;28;20356;-47
2021/07/17 12:26:24;;;;;;;3.50;2.15;;;32.30;63.20;;;;;;5046352;28;20840;-47
2021/07/17 12:28:54;;;;;;;3.83;2.30;;;32.30;62.80;;;;;;5055005;28;20077;-48
2021/07/17 12:31:20;;;;;;;2.90;1.83;;;32.50;64.00;;;;;;5044167;28;20074;-46
2021/07/17 12:33:47;;;;;;;3.83;2.25;;;32.40;62.20;;;;;;5051197;28;20116;-48
2021/07/17 12:36:18;;;;;;;3.83;1.80;;;32.30;64.60;;;;;;5049365;28;20024;-47